sensor_id;sensor_type;location;lat;lon;timestamp;pressure;altitude;pressure_sealevel;temperature;humidity
21236;BME280;10775;42.678;26.324;2023-03-19T00:01:17;99152.56;;;7.13;90.69
21236;BME280;10775;42.678;26.324;2023-03-19T00:03:42;99151.72;;;7.11;90.51
21236;BME280;10775;42.678;26.324;2023-03-19T00:06:07;99144.75;;;7.10;90.28
21236;BME280;10775;42.678;26.324;2023-03-19T00:08:33;99132.59;;;7.00;89.88
21236;BME280;10775;42.678;26.324;2023-03-19T00:11:05;99130.88;;;6.99;89.90
21236;BME280;10775;42.678;26.324;2023-03-19T00:13:30;99128.25;;;6.97;89.61
21236;BME280;10775;42.678;26.324;2023-03-19T00:15:56;99140.41;;;6.93;89.95
21236;BME280;10775;42.678;26.324;2023-03-19T00:18:21;99130.84;;;6.92;90.24
21236;BME280;10775;42.678;26.324;2023-03-19T00:20:47;99127.38;;;6.87;90.01
21236;BME280;10775;42.678;26.324;2023-03-19T00:23:12;99135.16;;;6.87;90.51
21236;BME280;10775;42.678;26.324;2023-03-19T00:25:38;99140.41;;;6.93;90.57
21236;BME280;10775;42.678;26.324;2023-03-19T00:28:03;99123.06;;;7.05;90.70
21236;BME280;10775;42.678;26.324;2023-03-19T00:30:29;99116.16;;;7.08;90.03
21236;BME280;10775;42.678;26.324;2023-03-19T00:32:54;99130.91;;;7.14;89.71
21236;BME280;10775;42.678;26.324;2023-03-19T00:35:20;99134.38;;;7.24;89.32
21236;BME280;10775;42.678;26.324;2023-03-19T00:37:45;99131.78;;;7.34;87.10
21236;BME280;10775;42.678;26.324;2023-03-19T00:40:11;99127.44;;;7.36;88.29
21236;BME280;10775;42.678;26.324;2023-03-19T00:42:37;99136.13;;;7.29;88.14
21236;BME280;10775;42.678;26.324;2023-03-19T00:45:02;99130.06;;;7.36;88.81
21236;BME280;10775;42.678;26.324;2023-03-19T00:47:28;99123.97;;;7.36;88.94
21236;BME280;10775;42.678;26.324;2023-03-19T00:49:53;99109.22;;;7.38;87.31
21236;BME280;10775;42.678;26.324;2023-03-19T00:52:20;99119.63;;;7.38;88.68
21236;BME280;10775;42.678;26.324;2023-03-19T00:54:45;99097.09;;;7.48;87.15
21236;BME280;10775;42.678;26.324;2023-03-19T00:57:10;99102.28;;;7.57;84.97
21236;BME280;10775;42.678;26.324;2023-03-19T00:59:36;99098.78;;;7.61;82.88
21236;BME280;10775;42.678;26.324;2023-03-19T01:02:02;99109.22;;;7.58;87.09
21236;BME280;10775;42.678;26.324;2023-03-19T01:04:27;99099.69;;;7.46;85.87
21236;BME280;10775;42.678;26.324;2023-03-19T01:06:53;99099.69;;;7.46;83.77
21236;BME280;10775;42.678;26.324;2023-03-19T01:09:19;99108.34;;;7.62;86.69
21236;BME280;10775;42.678;26.324;2023-03-19T01:11:44;99112.66;;;7.75;85.08
21236;BME280;10775;42.678;26.324;2023-03-19T01:14:10;99117.84;;;7.95;78.28
21236;BME280;10775;42.678;26.324;2023-03-19T01:16:35;99121.28;;;8.00;76.82
21236;BME280;10775;42.678;26.324;2023-03-19T01:19:01;99109.97;;;8.09;75.43
21236;BME280;10775;42.678;26.324;2023-03-19T01:21:27;99110.84;;;8.06;78.91
21236;BME280;10775;42.678;26.324;2023-03-19T01:23:56;99110.88;;;7.90;78.53
21236;BME280;10775;42.678;26.324;2023-03-19T01:26:22;99112.63;;;7.98;76.29
21236;BME280;10775;42.678;26.324;2023-03-19T01:28:48;99115.22;;;7.97;77.89
21236;BME280;10775;42.678;26.324;2023-03-19T01:31:14;99126.50;;;8.00;83.37
21236;BME280;10775;42.678;26.324;2023-03-19T01:33:40;99124.75;;;7.99;79.71
21236;BME280;10775;42.678;26.324;2023-03-19T01:36:06;99128.25;;;7.91;82.09
21236;BME280;10775;42.678;26.324;2023-03-19T01:38:32;99123.97;;;7.65;84.04
21236;BME280;10775;42.678;26.324;2023-03-19T01:40:58;99117.88;;;7.63;83.43
21236;BME280;10775;42.678;26.324;2023-03-19T01:43:26;99110.94;;;7.59;83.21
21236;BME280;10775;42.678;26.324;2023-03-19T01:45:56;99118.78;;;7.50;84.25
21236;BME280;10775;42.678;26.324;2023-03-19T01:48:28;99123.97;;;7.47;84.32
21236;BME280;10775;42.678;26.324;2023-03-19T01:50:57;99127.44;;;7.30;85.19
21236;BME280;10775;42.678;26.324;2023-03-19T01:53:27;99125.72;;;7.32;85.24
21236;BME280;10775;42.678;26.324;2023-03-19T01:55:59;99134.38;;;7.31;85.41
21236;BME280;10775;42.678;26.324;2023-03-19T01:58:27;99128.31;;;7.29;84.96
21236;BME280;10775;42.678;26.324;2023-03-19T02:00:54;99131.75;;;7.25;85.54
21236;BME280;10775;42.678;26.324;2023-03-19T02:03:20;99133.50;;;7.25;85.28
21236;BME280;10775;42.678;26.324;2023-03-19T02:05:47;99127.44;;;7.24;85.13
21236;BME280;10775;42.678;26.324;2023-03-19T02:08:16;99131.75;;;7.28;85.60
21236;BME280;10775;42.678;26.324;2023-03-19T02:10:43;99129.19;;;7.34;85.41
21236;BME280;10775;42.678;26.324;2023-03-19T02:13:10;99132.63;;;7.33;85.13
21236;BME280;10775;42.678;26.324;2023-03-19T02:15:36;99130.03;;;7.35;83.08
21236;BME280;10775;42.678;26.324;2023-03-19T02:18:02;99134.38;;;7.40;84.43
21236;BME280;10775;42.678;26.324;2023-03-19T02:20:46;99131.78;;;7.33;85.22
21236;BME280;10775;42.678;26.324;2023-03-19T02:28:25;99142.16;;;7.56;78.90
21236;BME280;10775;42.678;26.324;2023-03-19T02:30:50;99143.91;;;7.68;78.88
21236;BME280;10775;42.678;26.324;2023-03-19T02:33:17;99137.84;;;7.70;78.12
21236;BME280;10775;42.678;26.324;2023-03-19T02:35:45;99136.97;;;7.63;78.68
21236;BME280;10775;42.678;26.324;2023-03-19T02:38:12;99138.69;;;7.58;79.47
21236;BME280;10775;42.678;26.324;2023-03-19T02:40:47;99147.38;;;7.62;79.29
21236;BME280;10775;42.678;26.324;2023-03-19T02:43:15;99142.19;;;7.62;77.93
21236;BME280;10775;42.678;26.324;2023-03-19T02:45:40;99138.69;;;7.61;77.78
21236;BME280;10775;42.678;26.324;2023-03-19T02:48:06;99131.75;;;7.71;76.80
21236;BME280;10775;42.678;26.324;2023-03-19T02:50:31;99135.22;;;7.66;78.57
21236;BME280;10775;42.678;26.324;2023-03-19T02:52:57;99142.19;;;7.53;78.16
21236;BME280;10775;42.678;26.324;2023-03-19T02:55:22;99157.78;;;7.50;79.48
21236;BME280;10775;42.678;26.324;2023-03-19T02:57:47;99156.94;;;7.48;78.92
21236;BME280;10775;42.678;26.324;2023-03-19T03:00:13;99165.59;;;7.53;78.26
21236;BME280;10775;42.678;26.324;2023-03-19T03:02:41;99176.88;;;7.61;75.54
21236;BME280;10775;42.678;26.324;2023-03-19T03:05:07;99182.94;;;7.46;82.28
21236;BME280;10775;42.678;26.324;2023-03-19T03:07:33;99185.50;;;7.23;82.94
21236;BME280;10775;42.678;26.324;2023-03-19T03:09:59;99185.53;;;7.22;83.67
21236;BME280;10775;42.678;26.324;2023-03-19T03:12:24;99184.66;;;7.21;83.44
21236;BME280;10775;42.678;26.324;2023-03-19T03:14:50;99188.09;;;7.23;84.40
21236;BME280;10775;42.678;26.324;2023-03-19T03:17:16;99183.78;;;7.14;84.51
21236;BME280;10775;42.678;26.324;2023-03-19T03:19:41;99179.44;;;7.12;85.33
21236;BME280;10775;42.678;26.324;2023-03-19T03:22:07;99189.81;;;6.98;86.15
21236;BME280;10775;42.678;26.324;2023-03-19T03:24:32;99177.66;;;6.92;86.89
21236;BME280;10775;42.678;26.324;2023-03-19T03:26:58;99176.78;;;6.93;86.71
21236;BME280;10775;42.678;26.324;2023-03-19T03:29:24;99182.84;;;6.88;86.85
21236;BME280;10775;42.678;26.324;2023-03-19T03:31:50;99188.03;;;6.89;87.24
21236;BME280;10775;42.678;26.324;2023-03-19T03:34:16;99186.31;;;6.88;86.84
21236;BME280;10775;42.678;26.324;2023-03-19T03:36:42;99168.97;;;6.81;86.82
21236;BME280;10775;42.678;26.324;2023-03-19T03:39:07;99179.34;;;6.77;87.75
21236;BME280;10775;42.678;26.324;2023-03-19T03:41:33;99173.28;;;6.81;87.28
21236;BME280;10775;42.678;26.324;2023-03-19T03:43:58;99171.56;;;6.81;87.39
21236;BME280;10775;42.678;26.324;2023-03-19T03:46:23;99176.72;;;6.77;87.51
21236;BME280;10775;42.678;26.324;2023-03-19T03:48:49;99179.38;;;6.86;86.83
21236;BME280;10775;42.678;26.324;2023-03-19T03:51:18;99182.84;;;6.83;87.38
21236;BME280;10775;42.678;26.324;2023-03-19T03:53:44;99181.97;;;6.83;87.56
21236;BME280;10775;42.678;26.324;2023-03-19T03:56:10;99181.97;;;6.86;87.37
21236;BME280;10775;42.678;26.324;2023-03-19T03:58:35;99179.34;;;6.87;87.12
21236;BME280;10775;42.678;26.324;2023-03-19T04:01:02;99194.06;;;6.79;87.92
21236;BME280;10775;42.678;26.324;2023-03-19T04:03:27;99178.44;;;6.71;88.26
21236;BME280;10775;42.678;26.324;2023-03-19T04:05:53;99191.41;;;6.67;88.81
21236;BME280;10775;42.678;26.324;2023-03-19T04:08:20;99184.50;;;6.69;88.58
21236;BME280;10775;42.678;26.324;2023-03-19T04:10:45;99182.78;;;6.69;88.83
21236;BME280;10775;42.678;26.324;2023-03-19T04:13:11;99186.25;;;6.70;88.79
21236;BME280;10775;42.678;26.324;2023-03-19T04:15:37;99193.19;;;6.74;88.48
21236;BME280;10775;42.678;26.324;2023-03-19T04:18:03;99192.34;;;6.75;88.47
21236;BME280;10775;42.678;26.324;2023-03-19T04:20:29;99193.19;;;6.77;88.54
21236;BME280;10775;42.678;26.324;2023-03-19T04:22:55;99207.09;;;6.85;87.57
21236;BME280;10775;42.678;26.324;2023-03-19T04:25:20;99195.84;;;6.89;87.54
21236;BME280;10775;42.678;26.324;2023-03-19T04:27:46;99210.63;;;7.01;83.96
21236;BME280;10775;42.678;26.324;2023-03-19T04:30:12;99209.75;;;7.02;85.90
21236;BME280;10775;42.678;26.324;2023-03-19T04:32:38;99218.41;;;7.04;85.30
21236;BME280;10775;42.678;26.324;2023-03-19T04:35:04;99213.25;;;7.18;80.44
21236;BME280;10775;42.678;26.324;2023-03-19T04:37:29;99208.06;;;7.19;84.13
21236;BME280;10775;42.678;26.324;2023-03-19T04:39:55;99218.44;;;7.12;85.78
21236;BME280;10775;42.678;26.324;2023-03-19T04:42:21;99214.06;;;6.99;86.29
21236;BME280;10775;42.678;26.324;2023-03-19T04:44:46;99203.69;;;6.95;86.54
21236;BME280;10775;42.678;26.324;2023-03-19T04:47:11;99203.66;;;6.94;86.75
21236;BME280;10775;42.678;26.324;2023-03-19T04:49:37;99201.03;;;6.92;86.88
21236;BME280;10775;42.678;26.324;2023-03-19T04:52:03;99214.06;;;6.99;86.02
21236;BME280;10775;42.678;26.324;2023-03-19T04:54:28;99221.91;;;7.11;85.51
21236;BME280;10775;42.678;26.324;2023-03-19T04:56:54;99215.84;;;7.09;85.12
21236;BME280;10775;42.678;26.324;2023-03-19T04:59:19;99218.47;;;7.24;84.16
21236;BME280;10775;42.678;26.324;2023-03-19T05:01:46;99217.56;;;7.10;85.49
21236;BME280;10775;42.678;26.324;2023-03-19T05:04:12;99222.78;;;7.22;84.38
21236;BME280;10775;42.678;26.324;2023-03-19T05:06:37;99224.53;;;7.28;84.15
21236;BME280;10775;42.678;26.324;2023-03-19T05:09:04;99227.13;;;7.25;84.96
21236;BME280;10775;42.678;26.324;2023-03-19T05:11:30;99226.28;;;7.33;83.81
21236;BME280;10775;42.678;26.324;2023-03-19T05:13:56;99228.91;;;7.36;83.08
21236;BME280;10775;42.678;26.324;2023-03-19T05:16:21;99232.38;;;7.46;82.71
21236;BME280;10775;42.678;26.324;2023-03-19T05:18:47;99231.47;;;7.33;83.85
21236;BME280;10775;42.678;26.324;2023-03-19T05:21:13;99234.97;;;7.37;83.89
21236;BME280;10775;42.678;26.324;2023-03-19T05:23:39;99242.78;;;7.61;80.18
21236;BME280;10775;42.678;26.324;2023-03-19T05:26:05;99240.19;;;7.77;79.76
21236;BME280;10775;42.678;26.324;2023-03-19T05:28:31;99243.69;;;7.96;79.14
21236;BME280;10775;42.678;26.324;2023-03-19T05:30:57;99241.06;;;7.73;81.46
21236;BME280;10775;42.678;26.324;2023-03-19T05:33:22;99243.66;;;7.82;79.97
21236;BME280;10775;42.678;26.324;2023-03-19T05:35:48;99243.66;;;7.79;81.24
21236;BME280;10775;42.678;26.324;2023-03-19T05:38:14;99244.53;;;7.76;81.38
21236;BME280;10775;42.678;26.324;2023-03-19T05:40:39;99248.88;;;7.79;81.05
21236;BME280;10775;42.678;26.324;2023-03-19T05:43:09;99249.75;;;7.75;81.62
21236;BME280;10775;42.678;26.324;2023-03-19T05:45:36;99254.09;;;7.79;81.67
21236;BME280;10775;42.678;26.324;2023-03-19T05:48:02;99250.63;;;7.75;81.83
21236;BME280;10775;42.678;26.324;2023-03-19T05:50:28;99246.25;;;7.97;79.10
21236;BME280;10775;42.678;26.324;2023-03-19T05:52:56;99250.59;;;8.00;80.55
21236;BME280;10775;42.678;26.324;2023-03-19T05:55:21;99247.13;;;7.99;80.73
21236;BME280;10775;42.678;26.324;2023-03-19T05:57:47;99250.63;;;8.06;80.90
21236;BME280;10775;42.678;26.324;2023-03-19T06:00:12;99251.47;;;8.13;79.73
21236;BME280;10775;42.678;26.324;2023-03-19T06:02:39;99247.13;;;8.22;80.12
21236;BME280;10775;42.678;26.324;2023-03-19T06:05:05;99247.13;;;8.22;79.97
21236;BME280;10775;42.678;26.324;2023-03-19T06:07:31;99247.97;;;8.35;78.72
21236;BME280;10775;42.678;26.324;2023-03-19T06:09:56;99250.56;;;8.37;79.05
21236;BME280;10775;42.678;26.324;2023-03-19T06:12:22;99252.31;;;8.41;78.78
21236;BME280;10775;42.678;26.324;2023-03-19T06:14:49;99257.53;;;8.24;79.78
21236;BME280;10775;42.678;26.324;2023-03-19T06:17:14;99256.66;;;8.25;80.10
21236;BME280;10775;42.678;26.324;2023-03-19T06:19:40;99261.00;;;8.31;79.77
21236;BME280;10775;42.678;26.324;2023-03-19T06:22:05;99261.00;;;8.32;79.84
21236;BME280;10775;42.678;26.324;2023-03-19T06:24:31;99262.72;;;8.55;78.01
21236;BME280;10775;42.678;26.324;2023-03-19T06:26:58;99265.31;;;8.62;77.89
21236;BME280;10775;42.678;26.324;2023-03-19T06:29:24;99262.72;;;8.50;78.55
21236;BME280;10775;42.678;26.324;2023-03-19T06:31:49;99272.31;;;8.45;78.63
21236;BME280;10775;42.678;26.324;2023-03-19T06:34:15;99267.06;;;8.56;78.47
21236;BME280;10775;42.678;26.324;2023-03-19T06:36:40;99268.75;;;8.66;77.65
21236;BME280;10775;42.678;26.324;2023-03-19T06:39:05;99262.66;;;8.78;76.94
21236;BME280;10775;42.678;26.324;2023-03-19T06:41:31;99258.16;;;9.07;74.78
21236;BME280;10775;42.678;26.324;2023-03-19T06:43:57;99264.13;;;9.37;72.83
21236;BME280;10775;42.678;26.324;2023-03-19T06:46:22;99260.69;;;9.23;73.55
21236;BME280;10775;42.678;26.324;2023-03-19T06:48:48;99273.00;;;9.05;74.47
21236;BME280;10775;42.678;26.324;2023-03-19T06:51:13;99275.56;;;9.13;74.04
21236;BME280;10775;42.678;26.324;2023-03-19T06:53:39;99282.47;;;9.17;73.70
21236;BME280;10775;42.678;26.324;2023-03-19T06:56:04;99290.28;;;9.22;73.40
21236;BME280;10775;42.678;26.324;2023-03-19T06:58:30;99279.78;;;9.35;72.96
21236;BME280;10775;42.678;26.324;2023-03-19T07:00:56;99278.84;;;9.47;72.84
21236;BME280;10775;42.678;26.324;2023-03-19T07:03:22;99283.97;;;9.61;71.61
21236;BME280;10775;42.678;26.324;2023-03-19T07:05:50;99270.94;;;9.60;71.19
21236;BME280;10775;42.678;26.324;2023-03-19T07:08:16;99271.81;;;9.62;71.56
21236;BME280;10775;42.678;26.324;2023-03-19T07:10:42;99273.53;;;9.63;71.76
21236;BME280;10775;42.678;26.324;2023-03-19T07:13:08;99266.16;;;10.15;72.03
21236;BME280;10775;42.678;26.324;2023-03-19T07:15:33;99260.09;;;10.97;67.29
21236;BME280;10775;42.678;26.324;2023-03-19T07:18:00;99266.44;;;11.44;65.73
21236;BME280;10775;42.678;26.324;2023-03-19T07:20:26;99264.06;;;11.86;63.50
21236;BME280;10775;42.678;26.324;2023-03-19T07:22:52;99257.25;;;13.18;61.48
21236;BME280;10775;42.678;26.324;2023-03-19T07:25:18;99246.56;;;15.02;54.13
21236;BME280;10775;42.678;26.324;2023-03-19T07:27:44;99243.38;;;15.50;50.87
21236;BME280;10775;42.678;26.324;2023-03-19T07:30:10;99243.50;;;15.46;50.45
21236;BME280;10775;42.678;26.324;2023-03-19T07:32:37;99237.47;;;14.83;51.84
21236;BME280;10775;42.678;26.324;2023-03-19T07:35:06;99243.50;;;15.75;51.74
21236;BME280;10775;42.678;26.324;2023-03-19T07:37:32;99230.03;;;17.10;48.02
21236;BME280;10775;42.678;26.324;2023-03-19T07:39:58;99229.34;;;16.81;45.95
21236;BME280;10775;42.678;26.324;2023-03-19T07:42:23;99225.03;;;16.79;46.94
21236;BME280;10775;42.678;26.324;2023-03-19T07:44:49;99214.13;;;16.63;46.04
21236;BME280;10775;42.678;26.324;2023-03-19T07:47:14;99227.41;;;16.36;46.69
21236;BME280;10775;42.678;26.324;2023-03-19T07:49:40;99217.75;;;16.85;46.37
21236;BME280;10775;42.678;26.324;2023-03-19T07:52:05;99224.19;;;17.02;44.98
21236;BME280;10775;42.678;26.324;2023-03-19T07:54:31;99223.97;;;17.08;44.27
21236;BME280;10775;42.678;26.324;2023-03-19T07:56:57;99228.47;;;16.56;46.33
21236;BME280;10775;42.678;26.324;2023-03-19T07:59:22;99220.09;;;16.93;45.24
21236;BME280;10775;42.678;26.324;2023-03-19T08:01:48;99227.84;;;17.21;44.83
21236;BME280;10775;42.678;26.324;2023-03-19T08:04:13;99216.97;;;17.29;44.66
21236;BME280;10775;42.678;26.324;2023-03-19T08:06:39;99216.31;;;17.24;44.92
21236;BME280;10775;42.678;26.324;2023-03-19T08:09:05;99216.06;;;17.30;44.61
21236;BME280;10775;42.678;26.324;2023-03-19T08:11:31;99212.88;;;17.44;45.07
21236;BME280;10775;42.678;26.324;2023-03-19T08:13:56;99217.66;;;17.34;43.80
21236;BME280;10775;42.678;26.324;2023-03-19T08:16:22;99209.53;;;16.44;46.43
21236;BME280;10775;42.678;26.324;2023-03-19T08:18:47;99216.91;;;16.60;46.56
21236;BME280;10775;42.678;26.324;2023-03-19T08:21:13;99209.47;;;17.18;45.05
21236;BME280;10775;42.678;26.324;2023-03-19T08:23:39;99204.44;;;16.88;46.75
21236;BME280;10775;42.678;26.324;2023-03-19T08:26:05;99204.44;;;17.56;44.88
21236;BME280;10775;42.678;26.324;2023-03-19T08:28:30;99200.69;;;18.06;42.58
21236;BME280;10775;42.678;26.324;2023-03-19T08:30:56;99200.22;;;18.37;42.20
21236;BME280;10775;42.678;26.324;2023-03-19T08:33:21;99195.53;;;18.43;42.27
21236;BME280;10775;42.678;26.324;2023-03-19T08:35:47;99195.25;;;18.50;42.63
21236;BME280;10775;42.678;26.324;2023-03-19T08:38:12;99198.97;;;18.25;42.00
21236;BME280;10775;42.678;26.324;2023-03-19T08:40:38;99200.75;;;18.24;43.09
21236;BME280;10775;42.678;26.324;2023-03-19T08:43:04;99187.03;;;18.76;41.99
21236;BME280;10775;42.678;26.324;2023-03-19T08:45:29;99186.53;;;19.25;40.13
21236;BME280;10775;42.678;26.324;2023-03-19T08:47:55;99180.72;;;18.58;41.61
21236;BME280;10775;42.678;26.324;2023-03-19T08:50:22;99185.19;;;18.58;41.79
21236;BME280;10775;42.678;26.324;2023-03-19T08:52:48;99184.34;;;18.37;42.18
21236;BME280;10775;42.678;26.324;2023-03-19T08:55:14;99180.03;;;17.93;43.07
21236;BME280;10775;42.678;26.324;2023-03-19T08:57:40;99191.03;;;17.60;43.48
21236;BME280;10775;42.678;26.324;2023-03-19T09:00:06;99185.72;;;18.25;43.30
21236;BME280;10775;42.678;26.324;2023-03-19T09:02:32;99186.47;;;18.49;43.36
21236;BME280;10775;42.678;26.324;2023-03-19T09:04:57;99176.78;;;18.48;43.30
21236;BME280;10775;42.678;26.324;2023-03-19T09:07:23;99187.78;;;18.39;43.13
21236;BME280;10775;42.678;26.324;2023-03-19T09:09:49;99175.31;;;18.61;43.52
21236;BME280;10775;42.678;26.324;2023-03-19T09:12:15;99171.78;;;18.61;41.58
21236;BME280;10775;42.678;26.324;2023-03-19T09:14:42;99169.38;;;18.56;42.37
21236;BME280;10775;42.678;26.324;2023-03-19T09:17:08;99174.47;;;18.40;42.58
21236;BME280;10775;42.678;26.324;2023-03-19T09:19:34;99173.94;;;18.32;42.65
21236;BME280;10775;42.678;26.324;2023-03-19T09:22:00;99165.81;;;18.37;42.14
21236;BME280;10775;42.678;26.324;2023-03-19T09:24:25;99162.66;;;18.29;43.32
21236;BME280;10775;42.678;26.324;2023-03-19T09:26:51;99162.47;;;18.13;42.50
21236;BME280;10775;42.678;26.324;2023-03-19T09:29:17;99162.94;;;18.62;42.94
21236;BME280;10775;42.678;26.324;2023-03-19T09:31:43;99160.97;;;18.46;42.98
21236;BME280;10775;42.678;26.324;2023-03-19T09:34:09;99154.72;;;18.08;43.54
21236;BME280;10775;42.678;26.324;2023-03-19T09:36:35;99157.97;;;17.50;45.97
21236;BME280;10775;42.678;26.324;2023-03-19T09:39:01;99158.28;;;18.07;44.64
21236;BME280;10775;42.678;26.324;2023-03-19T09:44:10;99151.25;;;17.86;45.30
21236;BME280;10775;42.678;26.324;2023-03-19T09:46:53;99154.84;;;18.25;43.87
21236;BME280;10775;42.678;26.324;2023-03-19T09:49:24;99146.69;;;18.30;43.85
21236;BME280;10775;42.678;26.324;2023-03-19T09:54:39;99141.63;;;18.25;44.49
21236;BME280;10775;42.678;26.324;2023-03-19T09:57:07;99146.28;;;18.39;45.03
21236;BME280;10775;42.678;26.324;2023-03-19T09:59:33;99142.84;;;18.37;45.44
21236;BME280;10775;42.678;26.324;2023-03-19T10:15:36;99119.59;;;18.04;44.24
21236;BME280;10775;42.678;26.324;2023-03-19T10:18:10;99110.22;;;18.18;42.59
21236;BME280;10775;42.678;26.324;2023-03-19T10:25:31;99107.16;;;18.07;45.21
21236;BME280;10775;42.678;26.324;2023-03-19T10:28:13;99109.88;;;18.05;44.74
21236;BME280;10775;42.678;26.324;2023-03-19T10:30:41;99100.47;;;18.18;44.22
21236;BME280;10775;42.678;26.324;2023-03-19T10:35:43;99102.03;;;18.22;44.45
21236;BME280;10775;42.678;26.324;2023-03-19T10:38:23;99091.97;;;17.49;45.78
21236;BME280;10775;42.678;26.324;2023-03-19T10:41:18;99088.28;;;17.73;46.20
21236;BME280;10775;42.678;26.324;2023-03-19T10:43:51;99091.25;;;17.88;46.14
21236;BME280;10775;42.678;26.324;2023-03-19T10:46:18;99079.06;;;17.84;45.68
21236;BME280;10775;42.678;26.324;2023-03-19T10:48:46;99083.94;;;18.13;44.82
21236;BME280;10775;42.678;26.324;2023-03-19T10:51:38;99074.59;;;18.25;44.44
21236;BME280;10775;42.678;26.324;2023-03-19T10:54:18;99079.81;;;18.27;45.09
21236;BME280;10775;42.678;26.324;2023-03-19T10:56:44;99077.16;;;18.27;44.51
21236;BME280;10775;42.678;26.324;2023-03-19T10:59:25;99078.63;;;18.34;43.30
21236;BME280;10775;42.678;26.324;2023-03-19T11:02:02;99071.81;;;18.47;43.55
21236;BME280;10775;42.678;26.324;2023-03-19T11:04:34;99063.94;;;18.45;43.90
21236;BME280;10775;42.678;26.324;2023-03-19T11:07:09;99072.28;;;17.13;47.83
21236;BME280;10775;42.678;26.324;2023-03-19T11:09:39;99061.78;;;17.54;48.30
21236;BME280;10775;42.678;26.324;2023-03-19T11:14:42;99052.44;;;18.46;46.95
21236;BME280;10775;42.678;26.324;2023-03-19T11:22:40;99048.22;;;18.61;43.56
21236;BME280;10775;42.678;26.324;2023-03-19T11:25:25;99044.28;;;18.32;45.81
21236;BME280;10775;42.678;26.324;2023-03-19T11:28:09;99038.19;;;18.68;41.86
21236;BME280;10775;42.678;26.324;2023-03-19T11:36:31;99033.34;;;18.78;41.25
21236;BME280;10775;42.678;26.324;2023-03-19T12:00:20;99016.78;;;18.92;44.87
21236;BME280;10775;42.678;26.324;2023-03-19T12:08:47;99013.88;;;18.79;44.48
21236;BME280;10775;42.678;26.324;2023-03-19T12:11:47;99012.44;;;18.90;42.80
21236;BME280;10775;42.678;26.324;2023-03-19T12:22:22;99006.84;;;17.81;46.13
21236;BME280;10775;42.678;26.324;2023-03-19T12:25:38;99001.97;;;17.31;48.38
21236;BME280;10775;42.678;26.324;2023-03-19T12:28:09;98986.75;;;18.17;45.56
21236;BME280;10775;42.678;26.324;2023-03-19T12:30:41;99002.50;;;18.39;45.62
21236;BME280;10775;42.678;26.324;2023-03-19T12:35:46;98984.16;;;18.53;45.67
21236;BME280;10775;42.678;26.324;2023-03-19T12:38:20;98985.09;;;18.14;46.06
21236;BME280;10775;42.678;26.324;2023-03-19T12:43:27;98986.91;;;18.33;46.14
21236;BME280;10775;42.678;26.324;2023-03-19T12:46:12;98985.75;;;18.57;45.76
21236;BME280;10775;42.678;26.324;2023-03-19T12:48:43;98975.88;;;18.80;44.94
21236;BME280;10775;42.678;26.324;2023-03-19T12:51:12;98973.63;;;18.89;44.98
21236;BME280;10775;42.678;26.324;2023-03-19T12:56:12;98973.53;;;17.98;46.78
21236;BME280;10775;42.678;26.324;2023-03-19T12:58:55;98976.44;;;17.51;49.46
21236;BME280;10775;42.678;26.324;2023-03-19T13:01:26;98979.09;;;17.51;46.52
21236;BME280;10775;42.678;26.324;2023-03-19T13:03:57;98978.41;;;17.66;49.14
21236;BME280;10775;42.678;26.324;2023-03-19T13:08:51;98972.72;;;17.96;49.04
21236;BME280;10775;42.678;26.324;2023-03-19T13:19:24;98974.75;;;18.29;45.27
21236;BME280;10775;42.678;26.324;2023-03-19T13:21:54;98977.22;;;17.73;48.89
21236;BME280;10775;42.678;26.324;2023-03-19T13:26:51;98979.38;;;17.45;50.08
21236;BME280;10775;42.678;26.324;2023-03-19T13:29:23;98970.78;;;17.19;49.24
21236;BME280;10775;42.678;26.324;2023-03-19T13:31:50;98977.88;;;17.39;48.80
21236;BME280;10775;42.678;26.324;2023-03-19T13:36:43;98972.06;;;17.51;50.61
21236;BME280;10775;42.678;26.324;2023-03-19T13:39:18;98976.25;;;17.35;50.41
21236;BME280;10775;42.678;26.324;2023-03-19T13:41:57;98968.53;;;17.30;50.27
21236;BME280;10775;42.678;26.324;2023-03-19T13:44:47;98960.28;;;17.38;49.48
21236;BME280;10775;42.678;26.324;2023-03-19T14:03:20;98953.53;;;16.90;49.72
21236;BME280;10775;42.678;26.324;2023-03-19T14:05:47;98958.38;;;16.79;52.14
21236;BME280;10775;42.678;26.324;2023-03-19T14:08:21;98967.66;;;16.43;53.38
21236;BME280;10775;42.678;26.324;2023-03-19T14:10:50;98948.53;;;16.60;49.04
21236;BME280;10775;42.678;26.324;2023-03-19T14:13:37;98976.81;;;16.35;53.82
21236;BME280;10775;42.678;26.324;2023-03-19T14:16:14;98969.88;;;16.32;53.83
21236;BME280;10775;42.678;26.324;2023-03-19T14:18:42;98968.97;;;16.55;53.64
21236;BME280;10775;42.678;26.324;2023-03-19T14:21:13;98961.16;;;16.74;49.30
21236;BME280;10775;42.678;26.324;2023-03-19T14:23:40;98959.16;;;16.81;52.22
21236;BME280;10775;42.678;26.324;2023-03-19T14:26:15;98969.16;;;16.72;53.11
21236;BME280;10775;42.678;26.324;2023-03-19T14:31:22;98969.13;;;16.50;51.06
21236;BME280;10775;42.678;26.324;2023-03-19T14:34:10;98967.94;;;16.59;52.96
21236;BME280;10775;42.678;26.324;2023-03-19T14:37:07;98968.25;;;16.51;49.87
21236;BME280;10775;42.678;26.324;2023-03-19T14:39:39;98964.09;;;16.90;52.94
21236;BME280;10775;42.678;26.324;2023-03-19T14:42:27;98956.44;;;17.25;51.97
21236;BME280;10775;42.678;26.324;2023-03-19T14:53:49;98978.66;;;16.55;53.52
21236;BME280;10775;42.678;26.324;2023-03-19T14:56:30;98967.88;;;15.92;53.71
21236;BME280;10775;42.678;26.324;2023-03-19T14:58:56;98972.41;;;15.88;54.73
21236;BME280;10775;42.678;26.324;2023-03-19T15:01:25;98965.97;;;15.72;55.12
21236;BME280;10775;42.678;26.324;2023-03-19T15:04:06;98967.59;;;15.76;56.59
21236;BME280;10775;42.678;26.324;2023-03-19T15:06:38;98965.31;;;15.90;54.15
21236;BME280;10775;42.678;26.324;2023-03-19T15:15:12;98972.06;;;15.97;54.43
21236;BME280;10775;42.678;26.324;2023-03-19T15:17:28;98976.72;;;16.14;52.47